createdAt,value
2016-05-30T00:00:28.919Z,23.74
2016-05-30T00:01:28.953Z,23.74
2016-05-30T00:02:28.986Z,23.68
2016-05-30T00:03:28.849Z,23.68
2016-05-30T00:04:28.883Z,23.69
2016-05-30T00:05:29.058Z,23.74
2016-05-30T00:06:29.107Z,23.69
2016-05-30T00:07:28.985Z,23.62
2016-05-30T00:08:29.159Z,23.56
2016-05-30T00:09:29.193Z,23.62
2016-05-30T00:10:29.212Z,23.62
2016-05-30T00:11:29.246Z,23.65
2016-05-30T00:12:29.279Z,23.56
2016-05-30T00:13:29.298Z,23.56
2016-05-30T00:14:29.332Z,23.54
2016-05-30T00:15:29.225Z,23.61
2016-05-30T00:16:29.399Z,23.54
2016-05-30T00:17:29.418Z,23.54
2016-05-30T00:18:29.467Z,23.54
2016-05-30T00:19:29.486Z,23.54
2016-05-30T00:20:29.520Z,23.5
2016-05-30T00:21:29.537Z,23.46
2016-05-30T00:22:29.822Z,23.41
2016-05-30T00:23:29.606Z,23.44
2016-05-30T00:24:29.624Z,23.47
2016-05-30T00:25:29.673Z,23.39
2016-05-30T00:26:29.691Z,23.39
2016-05-30T00:27:29.710Z,23.36
2016-05-30T00:28:29.761Z,23.36
2016-05-30T00:29:29.622Z,23.36
2016-05-30T00:30:29.656Z,23.41
2016-05-30T00:31:29.846Z,23.39
2016-05-30T00:32:29.864Z,23.37
2016-05-30T00:33:29.898Z,23.36
2016-05-30T00:34:29.932Z,23.28
2016-05-30T00:35:29.966Z,23.28
2016-05-30T00:36:30.203Z,23.23
2016-05-30T00:37:30.597Z,23.28
2016-05-30T00:38:30.037Z,23.31
2016-05-30T00:39:30.085Z,23.31
2016-05-30T00:40:30.089Z,23.24
2016-05-30T00:41:30.124Z,23.25
2016-05-30T00:42:30.157Z,23.13
2016-05-30T00:43:30.191Z,23.23
2016-05-30T00:44:30.224Z,23.2
2016-05-30T00:45:30.259Z,23.23
2016-05-30T00:46:30.277Z,23.23
2016-05-30T00:47:30.312Z,23.1
2016-05-30T00:48:30.173Z,23.17
2016-05-30T00:49:30.363Z,23.15
2016-05-30T00:50:30.398Z,23.1
2016-05-30T00:51:30.431Z,23.09
2016-05-30T00:52:31.559Z,23.12
2016-05-30T00:53:30.483Z,23.17
2016-05-30T00:54:30.517Z,23.15
2016-05-30T00:55:30.536Z,23.06
2016-05-30T00:56:30.570Z,23.03
2016-05-30T00:57:30.603Z,23.08
2016-05-30T00:58:30.622Z,22.99
2016-05-30T00:59:30.656Z,23
2016-05-30T01:00:30.533Z,22.99
2016-05-30T01:01:30.567Z,23.02
2016-05-30T01:02:30.585Z,23
2016-05-30T01:03:30.775Z,22.98
2016-05-30T01:04:30.810Z,22.94
2016-05-30T01:05:30.828Z,22.91
2016-05-30T01:06:30.705Z,22.96
2016-05-30T01:07:31.068Z,22.94
2016-05-30T01:08:30.914Z,22.91
2016-05-30T01:09:30.948Z,22.91
2016-05-30T01:10:30.982Z,22.87
2016-05-30T01:11:31.000Z,22.88
2016-05-30T01:12:31.034Z,22.85
2016-05-30T01:13:31.068Z,22.93
2016-05-30T01:14:31.102Z,22.83
2016-05-30T01:15:31.120Z,22.84
2016-05-30T01:16:31.155Z,22.84
2016-05-30T01:17:31.173Z,22.81
2016-05-30T01:18:31.207Z,22.78
2016-05-30T01:19:31.084Z,22.73
2016-05-30T01:20:31.259Z,22.76
2016-05-30T01:21:31.309Z,22.84
2016-05-30T01:22:31.327Z,22.81
2016-05-30T01:23:31.345Z,22.76
2016-05-30T01:24:31.223Z,22.69
2016-05-30T01:25:31.257Z,22.68
2016-05-30T01:26:31.276Z,22.72
2016-05-30T01:27:31.465Z,22.72
2016-05-30T01:28:31.500Z,22.66
2016-05-30T01:29:31.361Z,22.66
2016-05-30T01:30:31.583Z,22.7
2016-05-30T01:31:31.586Z,22.65
2016-05-30T01:32:31.603Z,22.7
2016-05-30T01:33:31.481Z,22.69
2016-05-30T01:34:31.655Z,22.68
2016-05-30T01:35:31.706Z,22.59
2016-05-30T01:36:32.271Z,22.66
2016-05-30T01:37:32.196Z,22.57
2016-05-30T01:38:31.791Z,22.62
2016-05-30T01:39:31.654Z,22.66
2016-05-30T01:40:31.844Z,22.62
2016-05-30T01:41:31.863Z,22.55
2016-05-30T01:42:31.896Z,22.62
2016-05-30T01:43:31.930Z,22.53
2016-05-30T01:44:31.808Z,22.54
2016-05-30T01:45:31.998Z,22.53
2016-05-30T01:46:32.016Z,22.51
2016-05-30T01:47:31.893Z,22.53
2016-05-30T01:48:32.068Z,22.48
2016-05-30T01:49:32.118Z,22.6
2016-05-30T01:50:32.121Z,22.45
2016-05-30T01:51:32.248Z,22.45
2016-05-30T01:52:32.032Z,22.48
2016-05-30T01:53:32.223Z,22.51
2016-05-30T01:54:32.241Z,22.39
2016-05-30T01:55:32.275Z,22.38
2016-05-30T01:56:32.292Z,22.48
2016-05-30T01:57:32.327Z,22.45
2016-05-30T01:58:32.345Z,22.48
2016-05-30T01:59:32.395Z,22.43
2016-05-30T02:00:32.413Z,22.47
2016-05-30T02:01:32.432Z,22.47
2016-05-30T02:02:32.466Z,22.43
2016-05-30T02:03:32.499Z,22.41
2016-05-30T02:04:32.518Z,22.39
2016-05-30T02:05:32.552Z,22.38
2016-05-30T02:06:33.024Z,22.35
2016-05-30T02:07:32.495Z,22.35
2016-05-30T02:08:32.655Z,22.32
2016-05-30T02:09:32.687Z,22.38
2016-05-30T02:10:32.706Z,22.36
2016-05-30T02:11:32.724Z,22.32
2016-05-30T02:12:32.758Z,22.29
2016-05-30T02:13:32.808Z,22.22
2016-05-30T02:14:33.013Z,22.25
2016-05-30T02:15:32.844Z,22.29
2016-05-30T02:16:32.863Z,22.29
2016-05-30T02:17:32.741Z,22.3
2016-05-30T02:18:32.915Z,22.26
2016-05-30T02:19:32.949Z,22.23
2016-05-30T02:20:32.983Z,22.28
2016-05-30T02:21:32.704Z,22.29
2016-05-30T02:22:33.270Z,22.28
2016-05-30T02:23:33.069Z,22.2
2016-05-30T02:24:33.103Z,22.2
2016-05-30T02:25:33.121Z,22.22
2016-05-30T02:26:33.156Z,22.14
2016-05-30T02:27:33.173Z,22.11
2016-05-30T02:28:33.051Z,22.18
2016-05-30T02:29:33.086Z,22.07
2016-05-30T02:30:33.259Z,22.15
2016-05-30T02:31:33.137Z,22.18
2016-05-30T02:32:33.327Z,22.11
2016-05-30T02:33:33.347Z,22.15
2016-05-30T02:34:33.380Z,22.1
2016-05-30T02:35:33.414Z,22.06
2016-05-30T02:36:33.744Z,22.06
2016-05-30T02:37:34.935Z,22.06
2016-05-30T02:38:33.500Z,22.02
2016-05-30T02:39:33.531Z,22
2016-05-30T02:40:33.592Z,21.99
2016-05-30T02:41:33.652Z,22
2016-05-30T02:42:33.698Z,22.06
2016-05-30T02:43:33.759Z,22.06
2016-05-30T02:44:33.796Z,21.98
2016-05-30T02:45:33.840Z,22.04
2016-05-30T02:46:33.883Z,22.02
2016-05-30T02:47:33.911Z,22.04
2016-05-30T02:48:33.954Z,22.06
2016-05-30T02:49:33.980Z,22.02
2016-05-30T02:50:34.032Z,21.99
2016-05-30T02:51:34.929Z,22.02
2016-05-30T02:52:34.607Z,21.99
2016-05-30T02:53:34.113Z,21.95
2016-05-30T02:54:33.993Z,21.92
2016-05-30T02:55:34.169Z,21.95
2016-05-30T02:56:34.048Z,21.92
2016-05-30T02:57:34.240Z,21.95
2016-05-30T02:58:34.259Z,21.92
2016-05-30T02:59:34.293Z,21.98
2016-05-30T03:00:34.313Z,21.95
2016-05-30T03:01:34.348Z,21.88
2016-05-30T03:02:34.225Z,21.91
2016-05-30T03:03:34.417Z,21.85
2016-05-30T03:04:34.451Z,21.82
2016-05-30T03:05:34.470Z,21.85
2016-05-30T03:06:34.488Z,21.83
2016-05-30T03:07:36.131Z,21.85
2016-05-30T03:08:34.539Z,21.91
2016-05-30T03:09:34.574Z,21.85
2016-05-30T03:10:34.609Z,21.89
2016-05-30T03:11:34.486Z,21.82
2016-05-30T03:12:34.520Z,21.85
2016-05-30T03:13:34.678Z,21.82
2016-05-30T03:14:34.712Z,21.77
2016-05-30T03:15:34.747Z,21.82
2016-05-30T03:16:34.609Z,21.77
2016-05-30T03:17:34.814Z,21.73
2016-05-30T03:18:34.661Z,21.8
2016-05-30T03:19:34.850Z,21.79
2016-05-30T03:20:34.885Z,21.73
2016-05-30T03:21:35.356Z,21.76
2016-05-30T03:22:34.796Z,21.76
2016-05-30T03:23:34.971Z,21.73
2016-05-30T03:24:34.833Z,21.77
2016-05-30T03:25:35.024Z,21.79
2016-05-30T03:26:35.041Z,21.82
2016-05-30T03:27:35.075Z,21.69
2016-05-30T03:28:35.110Z,21.73
2016-05-30T03:29:35.143Z,21.64
2016-05-30T03:30:35.146Z,21.7
2016-05-30T03:31:35.179Z,21.69
2016-05-30T03:32:35.214Z,21.66
2016-05-30T03:33:35.248Z,21.67
2016-05-30T03:34:35.265Z,21.62
2016-05-30T03:35:35.300Z,21.72
2016-05-30T03:36:36.068Z,21.69
2016-05-30T03:37:35.243Z,21.7
2016-05-30T03:38:35.231Z,21.73
2016-05-30T03:39:35.421Z,21.75
2016-05-30T03:40:35.422Z,21.69
2016-05-30T03:41:35.332Z,21.73
2016-05-30T03:42:35.492Z,21.69
2016-05-30T03:43:35.525Z,21.7
2016-05-30T03:44:35.543Z,21.73
2016-05-30T03:45:35.578Z,21.7
2016-05-30T03:46:35.611Z,21.62
2016-05-30T03:47:35.630Z,21.7
2016-05-30T03:48:35.663Z,21.67
2016-05-30T03:49:35.744Z,21.67
2016-05-30T03:50:35.559Z,21.69
2016-05-30T03:51:35.766Z,21.7
2016-05-30T03:52:35.643Z,21.7
2016-05-30T03:53:35.802Z,21.69
2016-05-30T03:54:35.835Z,21.62
2016-05-30T03:55:35.854Z,21.67
2016-05-30T03:56:35.888Z,21.66
2016-05-30T03:57:35.907Z,21.7
2016-05-30T03:58:35.940Z,21.69
2016-05-30T03:59:35.818Z,21.64
2016-05-30T04:00:35.993Z,21.66
2016-05-30T04:01:36.026Z,21.64
2016-05-30T04:02:36.107Z,21.67
2016-05-30T04:03:36.078Z,21.64
2016-05-30T04:04:36.129Z,21.67
2016-05-30T04:05:36.131Z,21.69
2016-05-30T04:06:36.493Z,21.64
2016-05-30T04:07:36.542Z,21.66
2016-05-30T04:08:36.232Z,21.66
2016-05-30T04:09:36.251Z,21.69
2016-05-30T04:10:36.270Z,21.6
2016-05-30T04:11:36.320Z,21.66
2016-05-30T04:12:36.322Z,21.62
2016-05-30T04:13:36.355Z,21.6
2016-05-30T04:14:36.390Z,21.64
2016-05-30T04:15:36.408Z,21.6
2016-05-30T04:16:36.426Z,21.6
2016-05-30T04:17:36.476Z,21.62
2016-05-30T04:18:36.494Z,21.62
2016-05-30T04:19:36.544Z,21.6
2016-05-30T04:20:36.547Z,21.62
2016-05-30T04:21:36.861Z,21.64
2016-05-30T04:22:37.395Z,21.6
2016-05-30T04:23:36.633Z,21.6
2016-05-30T04:24:36.650Z,21.64
2016-05-30T04:25:36.685Z,21.67
2016-05-30T04:26:36.718Z,21.69
2016-05-30T04:27:36.737Z,21.75
2016-05-30T04:28:36.615Z,21.66
2016-05-30T04:29:36.788Z,21.69
2016-05-30T04:30:36.823Z,21.69
2016-05-30T04:31:36.701Z,21.66
2016-05-30T04:32:36.891Z,21.69
2016-05-30T04:33:36.909Z,21.7
2016-05-30T04:34:36.771Z,21.75
2016-05-30T04:35:36.961Z,21.64
2016-05-30T04:36:37.307Z,21.69
2016-05-30T04:37:37.046Z,21.72
2016-05-30T04:38:37.048Z,21.69
2016-05-30T04:39:37.081Z,21.62
2016-05-30T04:40:36.959Z,21.76
2016-05-30T04:41:37.134Z,21.7
2016-05-30T04:42:36.995Z,21.75
2016-05-30T04:43:37.031Z,21.76
2016-05-30T04:44:37.220Z,21.7
2016-05-30T04:45:37.238Z,21.7
2016-05-30T04:46:37.273Z,21.69
2016-05-30T04:47:37.384Z,21.69
2016-05-30T04:48:37.325Z,21.67
2016-05-30T04:49:37.187Z,21.66
2016-05-30T04:50:37.377Z,21.72
2016-05-30T04:51:37.630Z,21.76
2016-05-30T04:52:38.039Z,21.76
2016-05-30T04:53:37.541Z,21.79
2016-05-30T04:54:37.513Z,21.76
2016-05-30T04:55:37.516Z,21.8
2016-05-30T04:56:37.549Z,21.83
2016-05-30T04:57:37.427Z,21.88
2016-05-30T04:58:37.602Z,21.91
2016-05-30T04:59:37.557Z,21.83
2016-05-30T05:00:37.747Z,21.85
2016-05-30T05:01:37.610Z,21.91
2016-05-30T05:02:37.706Z,21.92
2016-05-30T05:03:37.724Z,21.89
2016-05-30T05:04:37.758Z,21.98
2016-05-30T05:05:37.807Z,21.95
2016-05-30T05:06:37.842Z,21.91
2016-05-30T05:07:37.938Z,21.95
2016-05-30T05:08:37.878Z,22
2016-05-30T05:09:37.896Z,22
2016-05-30T05:10:37.931Z,22.04
2016-05-30T05:11:37.948Z,22.06
2016-05-30T05:12:37.983Z,22.06
2016-05-30T05:13:38.017Z,22.04
2016-05-30T05:14:38.034Z,22.07
2016-05-30T05:15:38.069Z,22
2016-05-30T05:16:37.947Z,22
2016-05-30T05:17:37.981Z,22.06
2016-05-30T05:18:37.999Z,22.07
2016-05-30T05:19:38.189Z,22.2
2016-05-30T05:20:38.208Z,22.1
2016-05-30T05:21:38.289Z,22.11
2016-05-30T05:22:38.245Z,22.18
2016-05-30T05:23:38.294Z,22.28
2016-05-30T05:24:38.172Z,22.23
2016-05-30T05:25:38.189Z,22.23
2016-05-30T05:26:38.364Z,22.28
2016-05-30T05:27:38.399Z,22.28
2016-05-30T05:28:38.433Z,22.29
2016-05-30T05:29:38.450Z,22.28
2016-05-30T05:30:38.484Z,22.3
2016-05-30T05:31:38.503Z,22.29
2016-05-30T05:32:38.537Z,22.36
2016-05-30T05:33:38.571Z,22.36
2016-05-30T05:34:38.588Z,22.32
2016-05-30T05:35:38.638Z,22.36
2016-05-30T05:36:38.344Z,22.35
2016-05-30T05:37:38.518Z,22.36
2016-05-30T05:38:38.709Z,22.36
2016-05-30T05:39:38.727Z,22.41
2016-05-30T05:40:38.761Z,22.38
2016-05-30T05:41:38.796Z,22.44
2016-05-30T05:42:38.814Z,22.48
2016-05-30T05:43:38.848Z,22.48
2016-05-30T05:44:38.865Z,22.43
2016-05-30T05:45:38.900Z,22.36
2016-05-30T05:46:38.933Z,22.51
2016-05-30T05:47:38.968Z,22.41
2016-05-30T05:48:38.986Z,22.55
2016-05-30T05:49:39.020Z,22.54
2016-05-30T05:50:38.882Z,22.44
2016-05-30T05:51:39.213Z,22.51
2016-05-30T05:52:39.965Z,22.44
2016-05-30T05:53:39.139Z,22.53
2016-05-30T05:54:39.159Z,22.5
2016-05-30T05:55:39.177Z,22.62
2016-05-30T05:56:39.195Z,22.59
2016-05-30T05:57:39.229Z,22.62
2016-05-30T05:58:39.263Z,22.6
2016-05-30T05:59:39.141Z,22.69
2016-05-30T06:00:39.316Z,22.66
2016-05-30T06:01:39.349Z,22.69
2016-05-30T06:02:39.211Z,22.73
2016-05-30T06:03:39.417Z,22.68
2016-05-30T06:04:39.451Z,22.78
2016-05-30T06:05:39.454Z,22.85
2016-05-30T06:06:39.191Z,22.78
2016-05-30T06:07:39.677Z,22.87
2016-05-30T06:08:39.540Z,22.87
2016-05-30T06:09:39.574Z,22.85
2016-05-30T06:10:39.607Z,22.85
2016-05-30T06:11:39.470Z,22.9
2016-05-30T06:12:39.660Z,22.9
2016-05-30T06:13:39.693Z,22.96
2016-05-30T06:14:39.712Z,22.91
2016-05-30T06:15:39.746Z,23.02
2016-05-30T06:16:39.764Z,22.99
2016-05-30T06:17:39.798Z,22.96
2016-05-30T06:18:39.832Z,23.03
2016-05-30T06:19:39.850Z,23.08
2016-05-30T06:20:39.884Z,23.1
2016-05-30T06:21:40.059Z,23.12
2016-05-30T06:22:40.858Z,23.13
2016-05-30T06:23:39.970Z,23.18
2016-05-30T06:24:40.005Z,23.18
2016-05-30T06:25:40.022Z,23.24
2016-05-30T06:26:40.057Z,23.15
2016-05-30T06:27:40.106Z,23.34
2016-05-30T06:28:40.124Z,23.23
2016-05-30T06:29:40.127Z,23.27
2016-05-30T06:30:41.286Z,23.31
2016-05-30T06:31:40.038Z,23.37
2016-05-30T06:32:40.229Z,23.34
2016-05-30T06:33:43.091Z,23.39
2016-05-30T06:34:40.282Z,23.37
2016-05-30T06:35:42.207Z,23.51
2016-05-30T06:36:40.427Z,23.43
2016-05-30T06:37:40.883Z,23.46
2016-05-30T06:38:40.385Z,23.55
2016-05-30T06:39:40.420Z,23.58
2016-05-30T06:40:43.688Z,23.63
2016-05-30T06:41:40.315Z,23.65
2016-05-30T06:42:40.507Z,23.63
2016-05-30T06:43:40.524Z,23.73
2016-05-30T06:44:40.574Z,23.71
2016-05-30T06:45:42.170Z,23.69
2016-05-30T06:46:40.626Z,23.73
2016-05-30T06:47:40.660Z,23.73
2016-05-30T06:48:40.678Z,23.78
2016-05-30T06:49:40.713Z,23.77
2016-05-30T06:50:40.731Z,23.76
2016-05-30T06:51:40.608Z,23.83
2016-05-30T06:52:40.784Z,23.83
2016-05-30T06:53:40.817Z,23.88
2016-05-30T06:54:40.897Z,23.88
2016-05-30T06:55:40.964Z,23.91
2016-05-30T06:56:40.934Z,23.93
2016-05-30T06:57:41.078Z,23.91
2016-05-30T06:58:40.972Z,23.93
2016-05-30T06:59:40.849Z,24.05
2016-05-30T07:00:44.242Z,23.96
2016-05-30T07:01:41.057Z,23.91
2016-05-30T07:02:40.919Z,23.99
2016-05-30T07:03:41.125Z,24.05
2016-05-30T07:04:41.128Z,24.05
2016-05-30T07:05:41.022Z,24.1
2016-05-30T07:06:40.899Z,24.08
2016-05-30T07:07:41.230Z,24.11
2016-05-30T07:08:41.248Z,24.17
2016-05-30T07:09:41.126Z,24.17
2016-05-30T07:10:41.456Z,24.14
2016-05-30T07:11:41.335Z,24.21
2016-05-30T07:12:41.368Z,24.21
2016-05-30T07:13:41.401Z,24.3
2016-05-30T07:14:41.437Z,24.28
2016-05-30T07:15:43.501Z,24.33
2016-05-30T07:16:41.488Z,24.38
2016-05-30T07:17:41.507Z,24.36
2016-05-30T07:18:41.541Z,24.42
2016-05-30T07:19:41.559Z,24.51
2016-05-30T07:20:43.468Z,24.54
2016-05-30T07:21:41.486Z,24.6
2016-05-30T07:22:41.661Z,24.68
2016-05-30T07:23:41.679Z,24.73
2016-05-30T07:24:41.713Z,24.76
2016-05-30T07:25:43.387Z,24.84
2016-05-30T07:26:41.781Z,24.92
2016-05-30T07:27:41.815Z,24.89
2016-05-30T07:28:41.849Z,25.01
2016-05-30T07:29:41.852Z,24.93
2016-05-30T07:30:43.948Z,24.99
2016-05-30T07:31:41.778Z,25.03
2016-05-30T07:32:41.953Z,25.11
2016-05-30T07:33:41.987Z,25.07
2016-05-30T07:34:42.021Z,25.17
2016-05-30T07:35:42.649Z,25.13
2016-05-30T07:36:41.933Z,25.21
2016-05-30T07:37:42.138Z,25.17
2016-05-30T07:38:42.126Z,25.23
2016-05-30T07:39:42.159Z,25.26
2016-05-30T07:40:42.022Z,25.26
2016-05-30T07:41:42.212Z,25.33
2016-05-30T07:42:42.246Z,25.31
2016-05-30T07:43:42.264Z,25.36
2016-05-30T07:44:42.299Z,25.44
2016-05-30T07:45:42.051Z,25.46
2016-05-30T07:46:42.365Z,25.53
2016-05-30T07:47:42.228Z,25.58
2016-05-30T07:48:42.418Z,25.51
2016-05-30T07:49:42.452Z,25.55
2016-05-30T07:50:44.704Z,25.73
2016-05-30T07:51:42.520Z,25.69
2016-05-30T07:52:42.538Z,25.73
2016-05-30T07:53:42.400Z,25.69
2016-05-30T07:54:42.606Z,25.81
2016-05-30T07:55:46.093Z,25.85
2016-05-30T07:56:42.659Z,25.88
2016-05-30T07:57:42.692Z,25.96
2016-05-30T07:58:42.664Z,26.05
2016-05-30T07:59:42.744Z,26.1
2016-05-30T08:00:42.778Z,26.15
2016-05-30T08:01:42.891Z,26.25
2016-05-30T08:02:42.831Z,26.13
2016-05-30T08:03:42.708Z,26.21
2016-05-30T08:04:42.586Z,26.33
2016-05-30T08:05:45.933Z,26.37
2016-05-30T08:06:43.560Z,26.38
2016-05-30T08:07:42.829Z,26.43
2016-05-30T08:08:43.019Z,26.55
2016-05-30T08:09:43.038Z,26.47
2016-05-30T08:10:43.071Z,26.56
2016-05-30T08:11:43.105Z,26.66
2016-05-30T08:12:43.217Z,26.65
2016-05-30T08:13:43.157Z,26.63
2016-05-30T08:14:43.191Z,26.73
2016-05-30T08:15:43.226Z,26.81
2016-05-30T08:16:43.088Z,26.77
2016-05-30T08:17:43.277Z,26.84
2016-05-30T08:18:43.155Z,26.89
2016-05-30T08:19:43.189Z,26.93
2016-05-30T08:20:43.364Z,26.93
2016-05-30T08:21:43.898Z,27.02
2016-05-30T08:22:43.729Z,27.1
2016-05-30T08:23:43.451Z,27.22
2016-05-30T08:24:43.545Z,27.26
2016-05-30T08:25:43.517Z,27.26
2016-05-30T08:26:43.551Z,27.36
2016-05-30T08:27:43.586Z,27.51
2016-05-30T08:28:43.620Z,27.47
2016-05-30T08:29:43.653Z,27.59
2016-05-30T08:30:43.672Z,27.64
2016-05-30T08:31:43.705Z,27.77
2016-05-30T08:32:43.911Z,27.86
2016-05-30T08:33:43.774Z,28.01
2016-05-30T08:34:43.808Z,28.04
2016-05-30T08:35:43.685Z,28.1
2016-05-30T08:36:44.360Z,28.19
2016-05-30T08:37:43.894Z,28.26
2016-05-30T08:38:43.958Z,28.27
2016-05-30T08:39:43.790Z,28.32
2016-05-30T08:40:43.980Z,28.32
2016-05-30T08:41:43.858Z,28.39
2016-05-30T08:42:44.174Z,28.33
2016-05-30T08:43:44.237Z,28.44
2016-05-30T08:44:44.100Z,28.47
2016-05-30T08:45:44.134Z,28.49
2016-05-30T08:46:44.012Z,28.54
2016-05-30T08:47:44.045Z,28.59
2016-05-30T08:48:44.079Z,28.45
2016-05-30T08:49:44.254Z,28.52
2016-05-30T08:50:44.304Z,28.66
2016-05-30T08:51:45.151Z,28.62
2016-05-30T08:52:44.621Z,28.67
2016-05-30T08:53:44.483Z,28.78
2016-05-30T08:54:44.470Z,28.74
2016-05-30T08:55:44.458Z,28.76
2016-05-30T08:56:44.476Z,28.7
2016-05-30T08:57:44.510Z,28.76
2016-05-30T08:58:44.529Z,28.75
2016-05-30T08:59:44.578Z,28.78
2016-05-30T09:00:44.611Z,28.75
2016-05-30T09:01:44.755Z,28.67
2016-05-30T09:02:44.664Z,28.74
2016-05-30T09:03:44.698Z,28.78
2016-05-30T09:04:44.733Z,28.81
2016-05-30T09:05:44.766Z,28.88
2016-05-30T09:06:44.800Z,28.78
2016-05-30T09:07:44.833Z,28.84
2016-05-30T09:08:44.947Z,28.82
2016-05-30T09:09:44.886Z,28.85
2016-05-30T09:10:44.919Z,28.82
2016-05-30T09:11:44.954Z,28.81
2016-05-30T09:12:44.675Z,28.74
2016-05-30T09:13:45.022Z,28.78
2016-05-30T09:14:45.134Z,28.78
2016-05-30T09:15:45.090Z,28.67
2016-05-30T09:16:45.107Z,28.76
2016-05-30T09:17:45.157Z,28.72
2016-05-30T09:18:45.160Z,28.69
2016-05-30T09:19:45.148Z,28.75
2016-05-30T09:20:45.276Z,28.69
2016-05-30T09:21:45.215Z,28.69
2016-05-30T09:22:45.484Z,28.59
2016-05-30T09:23:45.329Z,28.64
2016-05-30T09:24:45.364Z,28.66
2016-05-30T09:25:45.398Z,28.64
2016-05-30T09:26:45.432Z,28.56
2016-05-30T09:27:45.309Z,28.57
2016-05-30T09:28:45.499Z,28.59
2016-05-30T09:29:45.518Z,28.54
2016-05-30T09:30:45.552Z,28.47
2016-05-30T09:31:45.586Z,28.52
2016-05-30T09:32:45.620Z,28.51
2016-05-30T09:33:45.654Z,28.52
2016-05-30T09:34:45.688Z,28.47
2016-05-30T09:35:45.581Z,28.52
2016-05-30T09:36:45.786Z,28.52
2016-05-30T09:37:45.634Z,28.62
2016-05-30T09:38:45.808Z,28.66
2016-05-30T09:39:45.841Z,28.56
2016-05-30T09:40:45.875Z,28.57
2016-05-30T09:41:46.097Z,28.59
2016-05-30T09:42:46.005Z,28.59
2016-05-30T09:43:46.150Z,28.54
2016-05-30T09:44:46.152Z,28.64
2016-05-30T09:45:46.045Z,28.57
2016-05-30T09:46:45.908Z,28.62
2016-05-30T09:47:45.941Z,28.63
2016-05-30T09:48:46.084Z,28.67
2016-05-30T09:49:46.166Z,28.76
2016-05-30T09:50:46.043Z,28.75
2016-05-30T09:51:46.749Z,28.7
2016-05-30T09:52:46.157Z,28.72
2016-05-30T09:53:46.285Z,28.78
2016-05-30T09:54:46.334Z,28.78
2016-05-30T09:55:46.369Z,28.72
2016-05-30T09:56:46.403Z,28.64
2016-05-30T09:57:46.453Z,28.67
2016-05-30T09:58:46.314Z,28.64
2016-05-30T09:59:46.567Z,28.67
2016-05-30T10:00:46.523Z,28.67
2016-05-30T10:01:46.557Z,28.66
2016-05-30T10:02:46.591Z,28.62
2016-05-30T10:03:46.641Z,28.63
2016-05-30T10:04:46.659Z,28.62
2016-05-30T10:05:46.678Z,28.64
2016-05-30T10:06:46.867Z,28.67
2016-05-30T10:07:46.745Z,28.63
2016-05-30T10:08:46.780Z,28.69
2016-05-30T10:09:46.814Z,28.66
2016-05-30T10:10:46.847Z,28.66
2016-05-30T10:11:46.881Z,28.62
2016-05-30T10:12:46.900Z,28.63
2016-05-30T10:13:46.933Z,28.69
2016-05-30T10:14:46.983Z,28.74
2016-05-30T10:15:47.002Z,28.76
2016-05-30T10:16:47.035Z,28.76
2016-05-30T10:17:46.913Z,28.79
2016-05-30T10:18:46.962Z,28.88
2016-05-30T10:19:47.152Z,28.85
2016-05-30T10:20:47.155Z,28.79
2016-05-30T10:21:47.407Z,28.91
2016-05-30T10:22:47.238Z,28.81
2016-05-30T10:23:47.273Z,28.76
2016-05-30T10:24:47.323Z,28.79
2016-05-30T10:25:47.450Z,28.86
2016-05-30T10:26:47.390Z,28.86
2016-05-30T10:27:47.409Z,28.86
2016-05-30T10:28:47.270Z,28.91
2016-05-30T10:29:47.461Z,29.01
2016-05-30T10:30:47.495Z,29.02
2016-05-30T10:31:47.481Z,29.01
2016-05-30T10:32:47.422Z,29.1
2016-05-30T10:33:47.597Z,29.14
2016-05-30T10:34:47.630Z,29.1
2016-05-30T10:35:47.648Z,29.16
2016-05-30T10:36:48.105Z,29.31
2016-05-30T10:37:48.092Z,29.31
2016-05-30T10:38:47.594Z,29.29
2016-05-30T10:39:47.784Z,29.31
2016-05-30T10:40:47.833Z,29.22
2016-05-30T10:41:47.853Z,29.31
2016-05-30T10:42:47.886Z,29.31
2016-05-30T10:43:47.920Z,29.31
2016-05-30T10:44:47.798Z,29.27
2016-05-30T10:45:47.988Z,29.29
2016-05-30T10:46:47.865Z,29.42
2016-05-30T10:47:47.900Z,29.51
2016-05-30T10:48:48.058Z,29.51
2016-05-30T10:49:48.060Z,29.54
2016-05-30T10:50:48.251Z,29.59
2016-05-30T10:51:48.302Z,29.57
2016-05-30T10:52:48.366Z,29.54
2016-05-30T10:53:48.260Z,29.57
2016-05-30T10:54:48.372Z,29.56
2016-05-30T10:55:48.374Z,29.59
2016-05-30T10:56:48.424Z,29.6
2016-05-30T10:57:48.287Z,29.57
2016-05-30T10:58:48.289Z,29.68
2016-05-30T10:59:48.448Z,29.63
2016-05-30T11:00:48.340Z,29.6
2016-05-30T11:01:48.515Z,29.69
2016-05-30T11:02:48.550Z,29.66
2016-05-30T11:03:48.583Z,29.65
2016-05-30T11:04:48.617Z,29.65
2016-05-30T11:05:48.651Z,29.66
2016-05-30T11:06:48.716Z,29.79
2016-05-30T11:07:48.750Z,29.76
2016-05-30T11:08:48.644Z,29.91
2016-05-30T11:09:48.989Z,29.95
2016-05-30T11:10:48.992Z,30.02
2016-05-30T11:11:48.995Z,30.08
2016-05-30T11:12:49.014Z,30.19
2016-05-30T11:13:48.891Z,30.27
2016-05-30T11:14:49.050Z,30.37
2016-05-30T11:15:49.069Z,30.54
2016-05-30T11:16:48.915Z,30.48
2016-05-30T11:17:48.980Z,30.53
2016-05-30T11:18:49.155Z,30.68
2016-05-30T11:19:49.033Z,30.68
2016-05-30T11:20:49.191Z,30.7
2016-05-30T11:21:49.179Z,30.87
2016-05-30T11:22:49.072Z,30.8
2016-05-30T11:23:49.091Z,30.91
2016-05-30T11:24:49.265Z,30.85
2016-05-30T11:25:49.315Z,30.92
2016-05-30T11:26:49.348Z,31.02
2016-05-30T11:27:49.382Z,31.06
2016-05-30T11:28:49.415Z,31.14
2016-05-30T11:29:49.294Z,31.25
2016-05-30T11:30:49.328Z,31.28
2016-05-30T11:31:49.503Z,31.37
2016-05-30T11:32:49.536Z,31.34
2016-05-30T11:33:49.586Z,31.4
2016-05-30T11:34:49.604Z,31.58
2016-05-30T11:35:49.498Z,31.54
2016-05-30T11:36:49.375Z,31.65
2016-05-30T11:37:49.706Z,31.74
2016-05-30T11:38:49.755Z,31.8
2016-05-30T11:39:49.478Z,31.92
2016-05-30T11:40:49.823Z,32.01
2016-05-30T11:41:49.857Z,32.09
2016-05-30T11:42:49.891Z,32.11
2016-05-30T11:43:49.910Z,32.11
2016-05-30T11:44:49.959Z,32.18
2016-05-30T11:45:50.008Z,32.18
2016-05-30T11:46:49.907Z,32.29
2016-05-30T11:47:49.961Z,32.31
2016-05-30T11:48:50.171Z,32.29
2016-05-30T11:49:50.084Z,32.36
2016-05-30T11:50:50.254Z,32.4
2016-05-30T11:51:50.327Z,32.41
2016-05-30T11:52:50.556Z,32.43
2016-05-30T11:53:50.378Z,32.56
2016-05-30T11:54:50.451Z,32.63
2016-05-30T11:55:50.472Z,32.63
2016-05-30T11:56:50.508Z,32.65
2016-05-30T11:57:50.546Z,32.7
2016-05-30T11:58:50.582Z,32.85
2016-05-30T11:59:50.619Z,32.89
2016-05-30T12:00:50.654Z,32.92
2016-05-30T12:01:50.377Z,32.96
2016-05-30T12:02:50.772Z,33.04
2016-05-30T12:03:50.776Z,33.11
2016-05-30T12:04:50.810Z,33.17
2016-05-30T12:05:50.689Z,33.28
2016-05-30T12:06:51.755Z,33.34
2016-05-30T12:07:50.773Z,33.34
2016-05-30T12:08:50.964Z,33.37
2016-05-30T12:09:50.982Z,33.45
2016-05-30T12:10:51.017Z,33.53
2016-05-30T12:11:51.035Z,33.47
2016-05-30T12:12:51.084Z,33.67
2016-05-30T12:13:51.134Z,33.68
2016-05-30T12:14:50.995Z,33.74
2016-05-30T12:15:51.186Z,33.8
2016-05-30T12:16:51.220Z,33.89
2016-05-30T12:17:51.254Z,33.96
2016-05-30T12:18:51.289Z,34.08
2016-05-30T12:19:51.166Z,34.1
2016-05-30T12:20:51.356Z,34.2
2016-05-30T12:21:51.390Z,34.2
2016-05-30T12:22:51.486Z,34.17
2016-05-30T12:23:51.473Z,34.24
2016-05-30T12:24:51.351Z,34.29
2016-05-30T12:25:51.541Z,34.4
2016-05-30T12:26:51.575Z,34.42
2016-05-30T12:27:51.609Z,34.52
2016-05-30T12:28:51.658Z,34.58
2016-05-30T12:29:51.677Z,34.61
2016-05-30T12:30:51.711Z,34.67
2016-05-30T12:31:51.761Z,34.73
2016-05-30T12:32:51.779Z,34.66
2016-05-30T12:33:51.813Z,34.66
2016-05-30T12:34:51.862Z,34.71
2016-05-30T12:35:51.724Z,34.64
2016-05-30T12:36:51.774Z,34.74
2016-05-30T12:37:52.324Z,34.67
2016-05-30T12:38:51.998Z,34.66
2016-05-30T12:39:52.048Z,34.62
2016-05-30T12:40:52.066Z,34.61
2016-05-30T12:41:52.131Z,34.71
2016-05-30T12:42:52.149Z,34.67
2016-05-30T12:43:52.184Z,34.75
2016-05-30T12:44:52.234Z,34.8
2016-05-30T12:45:52.251Z,34.95
2016-05-30T12:46:52.129Z,34.9
2016-05-30T12:47:52.319Z,34.99
2016-05-30T12:48:52.370Z,34.9
2016-05-30T12:49:52.403Z,34.9
2016-05-30T12:50:52.437Z,34.85
2016-05-30T12:51:52.517Z,34.89
2016-05-30T12:52:53.083Z,34.73
2016-05-30T12:53:52.539Z,34.73
2016-05-30T12:54:52.572Z,34.61
2016-05-30T12:55:52.606Z,34.6